• Join FlightAware (Why Join?)
  • Login
  • US Flag 
11:55AM EDT


 

Airport Tracker/Info


-or-


 

Live Flight TrackerFlight Track Log ✈ DAL6231 ✈ 18-Apr-2013 ✈ KLGA - CYHZ

Flight Track Log - Related Links

Times and Time Zones

All times are in EDT time to prevent confusion due to time zone crossing. See the DAL6231 flight status page for this flight to view local times or setup timezone preferences in your user account.

Time Position Orientation Groundspeed Altitude Reporting Facility
EDT Latitude Longitude Course Direction KTS MPH feet Rate Location/Type
09:09PM 40.7667 -73.8500 95° East 140 161 1,000  Level New York TRACON
09:11PM 40.7608 -73.7664 95° East 153 176 5,100 2,280 Climbing Boston Center
09:12PM 40.8322 -73.7183 27° Northeast 174 200 7,700 2,700 Climbing Boston Center
09:13PM 40.9119 -73.6594 29° Northeast 244 281 10,500 2,280 Climbing Boston Center
09:14PM 40.9900 -73.5783 38° Northeast 302 348 12,300 1,860 Climbing Boston Center
09:15PM 41.0639 -73.4889 42° Northeast 386 444 14,300 2,400 Climbing Boston Center
09:16PM 41.1400 -73.3661 51° Northeast 381 438 17,300 2,100 Climbing Boston Center
09:17PM 41.2117 -73.2514 50° Northeast 386 444 18,600 1,320 Climbing Boston Center
09:18PM 41.2894 -73.1281 50° Northeast 422 486 19,900 1,320 Climbing Boston Center
09:19PM 41.3694 -72.9989 50° Northeast 437 503 21,300 1,320 Climbing Boston Center
09:20PM 41.4492 -72.8639 52° Northeast 450 518 22,700 1,380 Climbing Boston Center
09:21PM 41.5331 -72.7286 50° Northeast 462 532 24,100 1,320 Climbing Boston Center
09:22PM 41.6125 -72.6233 45° Northeast 457 526 25,400 1,260 Climbing Boston Center
09:23PM 41.7125 -72.5153 39° Northeast 450 518 26,700 1,500 Climbing Boston Center
09:24PM 41.8272 -72.3928 38° Northeast 468 539 28,400 1,320 Climbing Boston Center
09:25PM 41.9292 -72.2839 38° Northeast 468 539 29,400 960 Climbing Boston Center
09:26PM 42.0333 -72.1717 39° Northeast 468 539 30,400 960 Climbing Boston Center
09:27PM 42.1392 -72.0536 40° Northeast 473 544 31,400 960 Climbing Boston Center
09:28PM 42.2450 -71.9381 39° Northeast 473 544 32,400 960 Climbing Boston Center
09:29PM 42.3508 -71.8247 38° Northeast 473 544 33,400 960 Climbing Boston Center
09:30PM 42.4564 -71.7083 39° Northeast 478 550 34,400 840 Climbing Boston Center
09:31PM 42.5597 -71.5917 40° Northeast 478 550 35,400 960 Climbing Boston Center
09:32PM 42.6900 -71.4572 37° Northeast 483 556 36,600 780 Climbing Boston Center
09:33PM 42.7850 -71.3453 41° Northeast 472 543 37,000 180 Climbing Boston Center
09:34PM 42.8881 -71.2331 39° Northeast 464 534 37,000  Level Boston Center
09:35PM 42.9847 -71.1231 40° Northeast 459 528 37,000  Level Boston Center
09:36PM 43.0833 -71.0072 41° Northeast 459 528 37,000  Level Boston Center
09:37PM 43.1819 -70.8969 39° Northeast 459 528 37,000  Level Boston Center
09:38PM 43.2700 -70.7947 40° Northeast 459 528 37,000  Level Boston Center
09:39PM 43.3683 -70.6808 40° Northeast 459 528 37,000  Level Boston Center
09:40PM 43.4561 -70.5494 47° Northeast 459 528 37,000  Level Boston Center
09:41PM 43.5242 -70.3983 58° Northeast 459 528 37,000  Level Boston Center
09:42PM 43.5944 -70.2469 57° Northeast 465 535 37,000  Level Boston Center
09:43PM 43.6581 -70.0956 60° Northeast 452 520 37,000  Level Boston Center
09:44PM 43.7317 -69.9317 58° Northeast 452 520 37,000  Level Boston Center
09:45PM 43.7992 -69.7792 58° Northeast 457 526 37,000  Level Boston Center
09:47PM 43.8800 -69.5914 59° Northeast 457 526 37,000  Level Boston Center
09:48PM 43.9472 -69.4408 58° Northeast 462 532 37,000  Level Boston Center
09:49PM 44.0158 -69.2817 59° Northeast 462 532 37,000  Level Boston Center
09:50PM 44.0825 -69.1306 58° Northeast 462 532 37,000  Level Boston Center
09:51PM 44.1486 -68.9764 59° Northeast 462 532 37,000  Level Boston Center
09:52PM 44.2147 -68.8219 59° Northeast 462 532 37,000  Level Boston Center
09:53PM 44.2806 -68.6642 60° Northeast 462 532 37,000  Level Boston Center
09:54PM 44.3483 -68.5058 59° Northeast 462 532 37,000  Level Boston Center
09:55PM 44.4178 -68.3442 59° Northeast 467 537 37,000  Level Boston Center
09:56PM 44.4828 -68.1856 60° Northeast 472 543 37,000  Level Boston Center
09:57PM 44.5478 -68.0264 60° Northeast 472 543 37,000  Level Boston Center
09:58PM 44.6144 -67.8694 59° Northeast 467 537 37,000  Level Boston Center
09:59PM 44.6811 -67.7125 59° Northeast 467 537 37,000  Level Boston Center
10:00PM 44.7475 -67.5519 60° Northeast 462 532 37,000  Level Boston Center
10:01PM 44.8058 -67.4067 60° Northeast 462 532 37,000  Level Boston Center
10:01PM 44.8167 -67.3167 80° East 470 541 37,000  Level Moncton Center
10:02PM 44.8667 -67.1333 69° East 470 541 37,000  Level Moncton Center
10:03PM 44.9000 -66.9667 74° East 490 564 37,000  Level Moncton Center
10:04PM 44.9000 -66.7500 90° East 500 575 37,000  Level Moncton Center
10:05PM 44.9000 -66.5667 90° East 500 575 37,000  Level Moncton Center
10:06PM 44.9000 -66.3500 90° East 500 575 37,000 -600 Level Moncton Center
10:07PM 44.9167 -66.1667 83° East 500 575 35,800 -1,500 Descending Moncton Center
10:08PM 44.9167 -65.9833 90° East 490 564 34,100 -1,800 Descending Moncton Center
10:09PM 44.9167 -65.7833 90° East 490 564 32,200 -2,040 Descending Moncton Center
10:10PM 44.9167 -65.5833 90° East 510 587 30,100 -2,400 Descending Moncton Center
10:11PM 44.9167 -65.3667 90° East 510 587 27,400 -2,580 Descending Moncton Center
10:12PM 44.9167 -65.1833 90° East 510 587 25,000 -2,460 Descending Moncton Center
10:13PM 44.9167 -64.9833 90° East 500 575 22,500 -2,580 Descending Moncton Center
10:14PM 44.9167 -64.8000 90° East 470 541 19,900 -2,340 Descending Moncton Center
10:15PM 44.9167 -64.6333 90° East 460 529 17,900 -2,220 Descending Moncton Center
10:16PM 44.9167 -64.4667 90° East 430 495 15,500 -2,160 Descending Moncton Center
10:17PM 44.9167 -64.3000 90° East 400 460 13,600 -1,980 Descending Moncton Center
10:18PM 44.9167 -64.1667 90° East 350 403 11,600 -2,100 Descending Moncton Center
10:19PM 44.9167 -64.0500 90° East 330 380 9,500 -1,860 Descending Moncton Center
10:20PM 44.9333 -63.9167 80° East 310 357 7,900 -1,740 Descending Moncton Center
10:21PM 44.9667 -63.8000 68° East 300 345 6,100 -1,680 Descending Moncton Center
10:22PM 45.0000 -63.7167 60° Northeast 290 334 4,600 -1,440 Descending Moncton Center
10:23PM 45.0167 -63.6167 77° East 270 311 3,300 -1,140 Descending Moncton Center
10:24PM 45.0333 -63.5167 77° East 240 276 2,400 -660 Descending Moncton Center
10:25PM 45.0167 -63.4500 109° East 190 219 2,000 -240 Descending Moncton Center
10:26PM 44.9667 -63.4333 167° South 150 173 2,000  Level Moncton Center
10:27PM 44.9333 -63.4333 180° South 120 138 2,000 -300 Level Moncton Center
10:28PM 44.9167 -63.4500 215° Southwest 110 127 1,500 -540 Descending Moncton Center
10:29PM 44.8833 -63.4833 215° Southwest 110 127 1,000 -540 Descending Moncton Center